createdAt,value
2022-12-19T00:01:42.316Z,82.78
2022-12-19T00:04:20.173Z,82.39
2022-12-19T00:06:57.730Z,82.84
2022-12-19T00:09:33.716Z,83.52
2022-12-19T00:12:15.907Z,83.79
2022-12-19T00:14:54.951Z,83.59
2022-12-19T00:17:33.086Z,82.90
2022-12-19T00:20:14.678Z,82.74
2022-12-19T00:22:54.591Z,82.59
2022-12-19T00:25:30.501Z,82.41
2022-12-19T00:28:06.619Z,82.41
2022-12-19T00:30:42.505Z,82.23
2022-12-19T00:33:18.729Z,82.21
2022-12-19T00:36:00.325Z,82.08
2022-12-19T00:38:36.578Z,82.56
2022-12-19T00:41:18.837Z,82.43
2022-12-19T00:43:58.509Z,81.93
2022-12-19T00:46:36.077Z,82.04
2022-12-19T00:49:12.210Z,82.07
2022-12-19T00:51:48.228Z,81.53
2022-12-19T00:54:24.216Z,81.52
2022-12-19T00:57:00.801Z,81.63
2022-12-19T00:59:36.621Z,81.97
2022-12-19T01:02:12.564Z,81.95
2022-12-19T01:04:48.857Z,81.94
2022-12-19T01:07:24.958Z,81.95
2022-12-19T01:10:01.400Z,81.86
2022-12-19T01:12:47.043Z,81.84
2022-12-19T01:15:24.394Z,81.85
2022-12-19T01:18:00.481Z,81.81
2022-12-19T01:20:36.746Z,81.19
2022-12-19T01:23:15.697Z,81.29
2022-12-19T01:25:57.747Z,81.30
2022-12-19T01:28:33.711Z,81.35
2022-12-19T01:31:12.363Z,81.47
2022-12-19T01:33:50.247Z,81.35
2022-12-19T01:36:26.656Z,81.32
2022-12-19T01:39:02.770Z,81.76
2022-12-19T01:41:38.594Z,81.94
2022-12-19T01:44:15.732Z,81.83
2022-12-19T01:46:58.171Z,81.40
2022-12-19T01:49:37.734Z,81.02
2022-12-19T01:52:23.676Z,81.57
2022-12-19T01:55:00.129Z,81.97
2022-12-19T01:57:36.479Z,82.46
2022-12-19T02:00:16.863Z,82.73
2022-12-19T02:03:01.880Z,82.89
2022-12-19T02:05:38.750Z,83.12
2022-12-19T02:08:15.791Z,83.10
2022-12-19T02:10:52.049Z,83.10
2022-12-19T02:13:28.578Z,83.34
2022-12-19T02:16:26.380Z,83.55
2022-12-19T02:19:55.730Z,83.42
2022-12-19T02:22:45.988Z,83.53
2022-12-19T02:25:59.157Z,83.30
2022-12-19T02:29:27.020Z,83.19
2022-12-19T02:32:10.647Z,83.11
2022-12-19T02:34:57.028Z,82.89
2022-12-19T02:37:39.062Z,82.73
2022-12-19T02:40:25.019Z,82.60
2022-12-19T02:43:07.849Z,82.42
2022-12-19T02:45:46.699Z,82.44
2022-12-19T02:48:24.369Z,82.27
2022-12-19T02:51:00.332Z,82.44
2022-12-19T02:53:38.541Z,82.34
2022-12-19T02:56:47.047Z,82.28
2022-12-19T02:59:59.368Z,82.34
2022-12-19T03:02:53.163Z,82.54
2022-12-19T03:05:50.772Z,82.79
2022-12-19T03:08:36.167Z,82.78
2022-12-19T03:11:15.593Z,82.77
2022-12-19T03:14:02.109Z,83.11
2022-12-19T03:16:40.145Z,83.36
2022-12-19T03:19:18.979Z,83.35
2022-12-19T03:21:54.939Z,83.44
2022-12-19T03:24:31.286Z,83.59
2022-12-19T03:27:13.037Z,83.60
2022-12-19T03:30:01.819Z,83.69
2022-12-19T03:32:41.186Z,83.74
2022-12-19T03:35:22.991Z,83.41
2022-12-19T03:38:04.204Z,83.63
2022-12-19T03:40:44.816Z,83.65
2022-12-19T03:43:23.028Z,83.60
2022-12-19T03:46:11.187Z,83.56
2022-12-19T03:48:52.123Z,83.33
2022-12-19T03:51:41.057Z,83.32
2022-12-19T03:54:23.229Z,82.83
2022-12-19T03:57:07.189Z,82.53
2022-12-19T03:59:48.809Z,82.64
2022-12-19T04:02:24.940Z,82.67
2022-12-19T04:05:08.801Z,82.43
2022-12-19T04:07:47.320Z,82.16
2022-12-19T04:10:28.265Z,81.99
2022-12-19T04:13:12.009Z,81.82
2022-12-19T04:16:01.262Z,81.79
2022-12-19T04:18:39.950Z,81.80
2022-12-19T04:21:26.452Z,81.70
2022-12-19T04:24:11.276Z,81.51
2022-12-19T04:26:51.085Z,81.46
2022-12-19T04:29:28.835Z,81.41
2022-12-19T04:32:08.503Z,81.11
2022-12-19T04:34:44.510Z,80.81
2022-12-19T04:37:21.554Z,80.77
2022-12-19T04:39:57.572Z,80.87
2022-12-19T04:42:33.427Z,80.73
2022-12-19T04:45:12.101Z,80.50
2022-12-19T04:47:48.070Z,80.43
2022-12-19T04:50:24.124Z,80.18
2022-12-19T04:53:00.108Z,79.93
2022-12-19T04:55:36.305Z,80.24
2022-12-19T04:58:15.344Z,80.54
2022-12-19T05:00:53.656Z,80.64
2022-12-19T05:03:29.719Z,80.48
2022-12-19T05:06:15.469Z,80.30
2022-12-19T05:08:51.577Z,80.13
2022-12-19T05:11:27.546Z,80.17
2022-12-19T05:14:03.923Z,80.28
2022-12-19T05:16:39.962Z,80.15
2022-12-19T05:19:16.002Z,79.99
2022-12-19T05:21:51.952Z,79.57
2022-12-19T05:24:27.816Z,79.55
2022-12-19T05:27:03.779Z,79.73
2022-12-19T05:29:39.594Z,79.65
2022-12-19T05:32:15.500Z,79.75
2022-12-19T05:34:51.209Z,79.77
2022-12-19T05:37:27.308Z,79.77
2022-12-19T05:40:03.105Z,79.78
2022-12-19T05:42:39.015Z,79.83
2022-12-19T05:45:15.582Z,79.76
2022-12-19T05:47:52.477Z,79.68
2022-12-19T05:50:28.438Z,79.47
2022-12-19T05:53:04.643Z,79.57
2022-12-19T05:55:40.543Z,79.48
2022-12-19T05:58:16.525Z,78.94
2022-12-19T06:00:54.840Z,78.89
2022-12-19T06:03:34.129Z,78.69
2022-12-19T06:06:15.869Z,78.88
2022-12-19T06:08:55.447Z,78.65
2022-12-19T06:11:31.813Z,78.80
2022-12-19T06:14:09.022Z,78.86
2022-12-19T06:16:45.043Z,78.93
2022-12-19T06:19:21.238Z,78.82
2022-12-19T06:21:57.347Z,78.87
2022-12-19T06:24:33.406Z,78.52
2022-12-19T06:27:09.388Z,78.38
2022-12-19T06:29:45.222Z,78.09
2022-12-19T06:32:21.226Z,77.99
2022-12-19T06:35:05.001Z,77.75
2022-12-19T06:37:41.174Z,77.36
2022-12-19T06:40:38.377Z,77.32
2022-12-19T06:43:14.335Z,77.82
2022-12-19T06:45:50.135Z,77.89
2022-12-19T06:48:26.025Z,77.83
2022-12-19T06:51:02.181Z,77.87
2022-12-19T06:53:38.373Z,77.57
2022-12-19T06:56:17.679Z,77.31
2022-12-19T06:58:54.302Z,77.12
2022-12-19T07:01:50.994Z,76.79
2022-12-19T07:04:34.851Z,77.23
2022-12-19T07:07:11.760Z,77.11
2022-12-19T07:09:47.750Z,77.10
2022-12-19T07:12:23.652Z,77.01
2022-12-19T07:14:59.637Z,77.03
2022-12-19T07:17:37.246Z,76.95
2022-12-19T07:20:16.963Z,76.92
2022-12-19T07:22:53.225Z,76.97
2022-12-19T07:25:29.198Z,77.04
2022-12-19T07:28:05.935Z,77.44
2022-12-19T07:30:41.850Z,77.78
2022-12-19T07:33:21.449Z,77.80
2022-12-19T07:35:58.373Z,78.41
2022-12-19T07:38:35.083Z,78.98
2022-12-19T07:41:11.257Z,79.22
2022-12-19T07:43:47.438Z,79.46
2022-12-19T07:46:23.314Z,79.55
2022-12-19T07:49:00.808Z,79.64
2022-12-19T07:51:37.651Z,79.89
2022-12-19T07:54:13.844Z,79.95
2022-12-19T07:56:49.810Z,79.84
2022-12-19T07:59:31.304Z,80.25
2022-12-19T08:02:10.442Z,80.34
2022-12-19T08:04:47.729Z,79.90
2022-12-19T08:07:23.767Z,79.75
2022-12-19T08:09:59.932Z,79.68
2022-12-19T08:12:36.808Z,79.19
2022-12-19T08:15:14.375Z,78.79
2022-12-19T08:17:50.616Z,79.17
2022-12-19T08:20:26.622Z,79.25
2022-12-19T08:23:02.583Z,78.91
2022-12-19T08:25:39.887Z,78.55
2022-12-19T08:28:15.821Z,78.17
2022-12-19T08:30:51.996Z,78.12
2022-12-19T08:33:28.216Z,77.96
2022-12-19T08:36:09.920Z,77.51
2022-12-19T08:38:47.325Z,77.79
2022-12-19T08:41:26.878Z,78.02
2022-12-19T08:44:03.251Z,77.69
2022-12-19T08:46:41.590Z,77.71
2022-12-19T08:49:20.128Z,77.83
2022-12-19T08:51:57.312Z,77.50
2022-12-19T08:54:35.579Z,77.53
2022-12-19T08:57:12.954Z,76.81
2022-12-19T08:59:48.957Z,76.98
2022-12-19T09:02:26.139Z,76.56
2022-12-19T09:05:58.653Z,76.32
2022-12-19T09:08:01.151Z,75.73
2022-12-19T09:10:40.340Z,75.92
2022-12-19T09:13:16.418Z,75.13
2022-12-19T09:15:59.814Z,75.46
2022-12-19T09:18:36.343Z,75.88
2022-12-19T09:21:13.740Z,75.75
2022-12-19T09:23:53.493Z,75.48
2022-12-19T09:26:33.616Z,75.31
2022-12-19T09:29:12.186Z,75.14
2022-12-19T09:31:57.248Z,75.00
2022-12-19T09:34:38.447Z,74.94
2022-12-19T09:37:17.699Z,74.46
2022-12-19T09:39:58.913Z,74.69
2022-12-19T09:43:12.428Z,74.65
2022-12-19T09:46:05.573Z,74.41
2022-12-19T09:48:42.128Z,74.26
2022-12-19T09:51:25.958Z,74.32
2022-12-19T09:54:13.503Z,74.00
2022-12-19T09:56:52.381Z,74.24
2022-12-19T09:59:41.437Z,73.96
2022-12-19T10:02:41.906Z,74.17
2022-12-19T10:06:26.889Z,74.10
2022-12-19T10:08:45.343Z,73.83
2022-12-19T10:12:42.983Z,73.76
2022-12-19T10:15:10.990Z,73.24
2022-12-19T10:18:38.265Z,73.46
2022-12-19T10:21:59.048Z,73.14
2022-12-19T10:25:09.279Z,73.52
2022-12-19T10:28:00.468Z,72.87
2022-12-19T10:30:45.034Z,72.73
2022-12-19T10:33:33.233Z,72.53
2022-12-19T10:36:15.643Z,72.46
2022-12-19T10:39:04.947Z,72.99
2022-12-19T10:41:46.215Z,73.31
2022-12-19T10:44:23.461Z,73.32
2022-12-19T10:47:00.668Z,73.21
2022-12-19T10:49:40.616Z,72.97
2022-12-19T10:52:17.188Z,72.55
2022-12-19T10:54:54.531Z,72.63
2022-12-19T10:57:32.704Z,72.44
2022-12-19T11:00:19.075Z,72.65
2022-12-19T11:03:13.400Z,72.34
2022-12-19T11:05:58.051Z,71.92
2022-12-19T11:08:37.317Z,72.24
2022-12-19T11:14:34.974Z,72.26
2022-12-19T11:20:12.706Z,71.76
2022-12-19T11:25:32.920Z,71.37
2022-12-19T11:29:42.672Z,71.52
2022-12-19T11:30:38.168Z,72.22
2022-12-19T11:30:45.508Z,72.06
2022-12-19T11:33:07.634Z,72.16
2022-12-19T11:35:54.951Z,71.93
2022-12-19T11:38:48.544Z,72.20
2022-12-19T11:41:36.458Z,71.67
2022-12-19T11:44:27.437Z,71.77
2022-12-19T11:47:22.382Z,71.72
2022-12-19T11:50:11.374Z,71.83
2022-12-19T11:53:09.355Z,72.04
2022-12-19T11:55:58.961Z,71.78
2022-12-19T11:58:34.913Z,71.72
2022-12-19T12:01:32.935Z,71.51
2022-12-19T12:08:05.194Z,72.39
2022-12-19T12:15:31.727Z,72.27
2022-12-19T12:23:35.264Z,72.16
2022-12-19T12:31:26.566Z,72.46
2022-12-19T12:31:27.605Z,72.59
2022-12-19T12:31:39.616Z,72.91
2022-12-19T12:31:42.780Z,72.79
2022-12-19T12:31:47.167Z,72.45
2022-12-19T12:35:31.646Z,72.61
2022-12-19T12:39:33.589Z,72.99
2022-12-19T12:42:34.814Z,73.02
2022-12-19T12:45:28.381Z,73.25
2022-12-19T12:48:04.679Z,73.51
2022-12-19T12:50:51.263Z,73.84
2022-12-19T12:53:39.117Z,73.65
2022-12-19T12:56:20.400Z,73.61
2022-12-19T12:59:28.292Z,73.52
2022-12-19T13:02:19.068Z,73.86
2022-12-19T13:05:16.794Z,73.75
2022-12-19T13:07:57.508Z,73.87
2022-12-19T13:10:37.890Z,73.79
2022-12-19T13:13:25.682Z,74.27
2022-12-19T13:16:21.997Z,74.26
2022-12-19T13:19:25.832Z,74.44
2022-12-19T13:22:37.737Z,74.40
2022-12-19T13:25:55.059Z,74.38
2022-12-19T13:28:46.114Z,74.22
2022-12-19T13:31:24.248Z,74.18
2022-12-19T13:34:22.241Z,74.29
2022-12-19T13:39:56.271Z,74.34
2022-12-19T13:40:51.629Z,74.47
2022-12-19T13:43:49.112Z,74.55
2022-12-19T13:46:41.629Z,74.49
2022-12-19T13:49:28.892Z,74.67
2022-12-19T13:52:12.309Z,74.67
2022-12-19T13:55:02.649Z,74.65
2022-12-19T13:57:42.455Z,74.71
2022-12-19T14:00:33.031Z,74.32
2022-12-19T14:03:17.716Z,74.46
2022-12-19T14:06:16.347Z,74.38
2022-12-19T14:09:25.230Z,74.04
2022-12-19T14:12:29.450Z,74.22
2022-12-19T14:15:15.946Z,74.15
2022-12-19T14:17:54.937Z,74.29
2022-12-19T14:22:05.376Z,74.45
2022-12-19T14:23:44.116Z,74.75
2022-12-19T14:28:26.669Z,75.05
2022-12-19T14:30:14.847Z,75.40
2022-12-19T14:33:40.975Z,75.49
2022-12-19T14:36:12.266Z,75.67
2022-12-19T14:39:21.975Z,75.57
2022-12-19T14:42:18.296Z,75.95
2022-12-19T14:51:42.382Z,75.76
2022-12-19T14:54:04.574Z,75.96
2022-12-19T14:54:09.147Z,75.83
2022-12-19T14:58:50.645Z,75.03
2022-12-19T15:01:09.660Z,74.95
2022-12-19T15:03:40.156Z,75.51
2022-12-19T15:07:07.332Z,75.93
2022-12-19T15:11:07.498Z,76.12
2022-12-19T15:14:55.374Z,76.04
2022-12-19T15:15:55.010Z,76.32
2022-12-19T15:18:43.045Z,76.49
2022-12-19T15:21:19.446Z,76.26
2022-12-19T15:23:56.059Z,76.15
2022-12-19T15:26:37.183Z,76.34
2022-12-19T15:29:21.897Z,76.15
2022-12-19T15:31:58.775Z,76.18
2022-12-19T15:34:41.570Z,76.69
2022-12-19T15:37:22.133Z,76.83
2022-12-19T15:39:58.320Z,76.89
2022-12-19T15:42:35.036Z,77.03
2022-12-19T15:45:19.250Z,77.08
2022-12-19T15:47:56.040Z,77.45
2022-12-19T15:50:33.366Z,77.54
2022-12-19T15:53:39.969Z,77.68
2022-12-19T15:56:32.411Z,77.83
2022-12-19T15:59:19.076Z,78.05
2022-12-19T16:01:57.323Z,78.01
2022-12-19T16:04:34.188Z,78.12
2022-12-19T16:07:18.901Z,78.30
2022-12-19T16:09:55.947Z,78.40
2022-12-19T16:12:38.791Z,78.37
2022-12-19T16:15:24.025Z,78.52
2022-12-19T16:18:03.105Z,78.35
2022-12-19T16:20:40.427Z,77.92
2022-12-19T16:23:17.631Z,77.55
2022-12-19T16:25:54.817Z,77.53
2022-12-19T16:28:35.474Z,77.08
2022-12-19T16:31:25.073Z,77.27
2022-12-19T16:34:02.488Z,77.18
2022-12-19T16:36:38.781Z,77.04
2022-12-19T16:39:16.230Z,77.02
2022-12-19T16:41:53.122Z,77.52
2022-12-19T16:44:32.180Z,77.66
2022-12-19T16:47:13.846Z,78.16
2022-12-19T16:49:50.154Z,78.51
2022-12-19T16:52:26.055Z,78.44
2022-12-19T16:55:02.271Z,78.44
2022-12-19T16:57:39.113Z,78.74
2022-12-19T17:00:23.197Z,78.62
2022-12-19T17:03:04.474Z,78.87
2022-12-19T17:05:40.803Z,78.89
2022-12-19T17:08:17.979Z,78.99
2022-12-19T17:10:55.735Z,79.33
2022-12-19T17:13:32.392Z,79.33
2022-12-19T17:16:09.891Z,79.27
2022-12-19T17:18:48.632Z,79.01
2022-12-19T17:21:27.174Z,78.91
2022-12-19T17:24:03.033Z,78.79
2022-12-19T17:26:39.027Z,78.57
2022-12-19T17:29:15.405Z,78.21
2022-12-19T17:31:52.060Z,78.27
2022-12-19T17:34:34.875Z,78.37
2022-12-19T17:37:16.289Z,78.64
2022-12-19T17:39:51.225Z,78.93
2022-12-19T17:42:36.923Z,78.74
2022-12-19T17:45:16.095Z,78.85
2022-12-19T17:48:00.410Z,79.03
2022-12-19T17:50:43.562Z,79.39
2022-12-19T17:53:19.745Z,79.50
2022-12-19T17:55:55.621Z,79.42
2022-12-19T17:58:31.857Z,79.39
2022-12-19T18:01:13.998Z,79.61
2022-12-19T18:03:53.920Z,79.62
2022-12-19T18:06:29.974Z,79.76
2022-12-19T18:09:06.182Z,79.78
2022-12-19T18:11:42.444Z,79.66
2022-12-19T18:14:19.374Z,79.76
2022-12-19T18:16:55.555Z,79.73
2022-12-19T18:19:35.803Z,79.61
2022-12-19T18:22:16.460Z,79.54
2022-12-19T18:24:52.922Z,79.38
2022-12-19T18:27:29.371Z,79.54
2022-12-19T18:30:06.549Z,79.63
2022-12-19T18:32:42.922Z,79.56
2022-12-19T18:35:30.844Z,79.51
2022-12-19T18:38:14.008Z,79.45
2022-12-19T18:40:52.636Z,79.26
2022-12-19T18:43:31.270Z,79.06
2022-12-19T18:46:10.909Z,79.18
2022-12-19T18:48:48.128Z,79.03
2022-12-19T18:51:26.547Z,79.23
2022-12-19T18:54:03.293Z,79.31
2022-12-19T18:56:39.303Z,79.41
2022-12-19T18:59:15.444Z,79.49
2022-12-19T19:01:52.551Z,79.31
2022-12-19T19:04:28.566Z,79.42
2022-12-19T19:07:04.408Z,79.39
2022-12-19T19:09:40.292Z,79.24
2022-12-19T19:12:48.794Z,78.93
2022-12-19T19:15:30.480Z,79.02
2022-12-19T19:18:10.937Z,79.25
2022-12-19T19:20:55.709Z,79.30
2022-12-19T19:23:49.670Z,79.46
2022-12-19T19:26:26.531Z,79.57
2022-12-19T19:29:02.502Z,79.65
2022-12-19T19:31:45.194Z,79.70
2022-12-19T19:34:27.322Z,79.85
2022-12-19T19:37:08.182Z,79.94
2022-12-19T19:39:45.292Z,80.16
2022-12-19T19:42:22.406Z,80.22
2022-12-19T19:44:58.576Z,80.34
2022-12-19T19:47:37.280Z,80.56
2022-12-19T19:50:16.291Z,80.87
2022-12-19T19:52:52.534Z,81.12
2022-12-19T19:55:29.065Z,81.32
2022-12-19T19:58:08.730Z,81.47
2022-12-19T20:00:46.985Z,81.59
2022-12-19T20:03:24.136Z,81.72
2022-12-19T20:06:09.791Z,81.61
2022-12-19T20:08:46.411Z,81.57
2022-12-19T20:11:22.318Z,81.49
2022-12-19T20:13:58.390Z,81.43
2022-12-19T20:16:34.582Z,81.32
2022-12-19T20:19:10.700Z,81.23
2022-12-19T20:21:49.325Z,81.17
2022-12-19T20:24:25.142Z,81.26
2022-12-19T20:27:01.784Z,81.30
2022-12-19T20:29:38.098Z,81.16
2022-12-19T20:32:14.882Z,80.97
2022-12-19T20:34:50.890Z,80.73
2022-12-19T20:37:27.018Z,80.49
2022-12-19T20:40:04.363Z,80.34
2022-12-19T20:42:40.350Z,80.30
2022-12-19T20:45:16.970Z,80.34
2022-12-19T20:47:53.117Z,80.31
2022-12-19T20:50:29.158Z,80.37
2022-12-19T20:53:29.656Z,80.32
2022-12-19T20:56:09.293Z,80.48
2022-12-19T20:58:45.993Z,80.59
2022-12-19T21:01:26.240Z,80.66
2022-12-19T21:04:03.508Z,80.77
2022-12-19T21:06:41.519Z,80.92
2022-12-19T21:09:18.094Z,80.95
2022-12-19T21:11:54.154Z,80.94
2022-12-19T21:14:30.869Z,80.93
2022-12-19T21:17:06.796Z,81.07
2022-12-19T21:19:43.223Z,81.06
2022-12-19T21:22:19.473Z,81.03
2022-12-19T21:24:55.559Z,81.09
2022-12-19T21:27:31.409Z,81.00
2022-12-19T21:30:09.902Z,80.87
2022-12-19T21:32:46.019Z,80.81
2022-12-19T21:35:22.282Z,80.65
2022-12-19T21:37:58.397Z,80.67
2022-12-19T21:40:36.668Z,80.66
2022-12-19T21:43:12.770Z,80.75
2022-12-19T21:45:48.732Z,80.79
2022-12-19T21:48:24.819Z,80.51
2022-12-19T21:51:02.207Z,80.38
2022-12-19T21:53:39.462Z,80.35
2022-12-19T21:56:26.055Z,80.27
2022-12-19T21:59:05.204Z,80.27
2022-12-19T22:01:42.365Z,80.15
2022-12-19T22:04:22.346Z,80.36
2022-12-19T22:06:58.401Z,80.54
2022-12-19T22:09:34.589Z,80.58
2022-12-19T22:12:13.766Z,80.60
2022-12-19T22:14:50.330Z,80.76
2022-12-19T22:17:26.320Z,80.74
2022-12-19T22:20:02.129Z,80.89
2022-12-19T22:22:38.563Z,80.94
2022-12-19T22:25:15.685Z,81.10
2022-12-19T22:27:51.588Z,81.23
2022-12-19T22:30:27.510Z,81.15
2022-12-19T22:33:59.437Z,81.23
2022-12-19T22:36:38.799Z,81.31
2022-12-19T22:39:22.662Z,81.30
2022-12-19T22:41:58.601Z,81.36
2022-12-19T22:44:34.657Z,81.45
2022-12-19T22:47:10.615Z,81.48
2022-12-19T22:49:46.875Z,81.47
2022-12-19T22:52:23.769Z,81.52
2022-12-19T22:54:59.608Z,81.50
2022-12-19T22:57:35.475Z,81.43
2022-12-19T23:00:16.368Z,81.49
2022-12-19T23:02:52.643Z,81.50
2022-12-19T23:05:32.552Z,81.44
2022-12-19T23:08:15.698Z,81.05
2022-12-19T23:11:03.333Z,80.80
2022-12-19T23:13:47.843Z,80.77
2022-12-19T23:16:34.097Z,80.66
2022-12-19T23:19:16.974Z,80.09
2022-12-19T23:22:07.579Z,79.67
2022-12-19T23:24:59.190Z,79.72
2022-12-19T23:27:41.045Z,79.83
2022-12-19T23:30:39.313Z,79.90
2022-12-19T23:33:21.031Z,79.67
2022-12-19T23:35:59.700Z,79.70
2022-12-19T23:38:44.377Z,79.77
2022-12-19T23:41:26.397Z,79.85
2022-12-19T23:44:22.068Z,79.80
2022-12-19T23:47:03.467Z,79.81
2022-12-19T23:49:40.051Z,80.03
2022-12-19T23:52:16.017Z,80.11
2022-12-19T23:54:52.040Z,80.20
2022-12-19T23:57:27.997Z,80.16
